Terminal Aerodrome Forecast
Issued by NWS Charleston, SC

Home | Current Version | Previous Version | Text Only | Print | Product List | Glossary On
Versions: 1 2 3 4 5 6 7 8 9 10 11 12 13 14 15 16
695
FTUS42 KCHS 232320
TAFCHS
TAF
KCHS 232320Z 2400/2424 10006KT P6SM FEW200
     FM240500 02003KT P6SM FEW250
     FM241300 03007KT P6SM SCT200
     FM241600 04010G18KT P6SM SCT035=

USA.gov is the U.S. government's official web portal to all federal, state and local government web resources and services.